sensor_id;sensor_type;location;lat;lon;timestamp;temperature;humidity
12329;DHT22;6230;52.390;10.256;2023-05-02T00:02:03;17.90;50.10
12329;DHT22;6230;52.390;10.256;2023-05-02T00:04:28;17.90;50.10
12329;DHT22;6230;52.390;10.256;2023-05-02T00:06:54;17.90;50.00
12329;DHT22;6230;52.390;10.256;2023-05-02T00:09:20;17.90;50.00
12329;DHT22;6230;52.390;10.256;2023-05-02T00:11:46;17.90;50.00
12329;DHT22;6230;52.390;10.256;2023-05-02T00:14:11;17.90;50.10
12329;DHT22;6230;52.390;10.256;2023-05-02T00:16:37;17.90;50.10
12329;DHT22;6230;52.390;10.256;2023-05-02T00:19:02;17.80;50.00
12329;DHT22;6230;52.390;10.256;2023-05-02T00:21:28;17.80;50.00
12329;DHT22;6230;52.390;10.256;2023-05-02T00:23:54;17.80;50.00
12329;DHT22;6230;52.390;10.256;2023-05-02T00:26:23;17.80;50.00
12329;DHT22;6230;52.390;10.256;2023-05-02T00:28:49;17.80;50.00
12329;DHT22;6230;52.390;10.256;2023-05-02T00:31:15;17.70;49.90
12329;DHT22;6230;52.390;10.256;2023-05-02T00:33:41;17.70;50.00
12329;DHT22;6230;52.390;10.256;2023-05-02T00:36:16;17.70;50.00
12329;DHT22;6230;52.390;10.256;2023-05-02T00:38:42;17.70;50.00
12329;DHT22;6230;52.390;10.256;2023-05-02T00:41:08;17.70;49.90
12329;DHT22;6230;52.390;10.256;2023-05-02T00:43:33;17.60;49.80
12329;DHT22;6230;52.390;10.256;2023-05-02T00:45:59;17.60;49.70
12329;DHT22;6230;52.390;10.256;2023-05-02T00:48:25;17.60;49.80
12329;DHT22;6230;52.390;10.256;2023-05-02T00:50:51;17.60;49.90
12329;DHT22;6230;52.390;10.256;2023-05-02T00:53:17;17.60;49.90
12329;DHT22;6230;52.390;10.256;2023-05-02T00:55:43;17.50;49.90
12329;DHT22;6230;52.390;10.256;2023-05-02T00:58:11;17.50;50.00
12329;DHT22;6230;52.390;10.256;2023-05-02T01:09:28;17.50;50.10
12329;DHT22;6230;52.390;10.256;2023-05-02T01:12:15;17.40;50.20
12329;DHT22;6230;52.390;10.256;2023-05-02T01:14:47;17.40;50.10
12329;DHT22;6230;52.390;10.256;2023-05-02T01:17:14;17.40;50.10
12329;DHT22;6230;52.390;10.256;2023-05-02T01:19:46;17.40;50.10
12329;DHT22;6230;52.390;10.256;2023-05-02T01:22:14;17.40;50.10
12329;DHT22;6230;52.390;10.256;2023-05-02T01:27:40;17.30;50.10
12329;DHT22;6230;52.390;10.256;2023-05-02T01:30:08;17.30;50.00
12329;DHT22;6230;52.390;10.256;2023-05-02T01:32:36;17.30;50.10
12329;DHT22;6230;52.390;10.256;2023-05-02T01:35:05;17.30;50.10
12329;DHT22;6230;52.390;10.256;2023-05-02T01:37:31;17.30;50.20
12329;DHT22;6230;52.390;10.256;2023-05-02T01:39:59;17.20;50.20
12329;DHT22;6230;52.390;10.256;2023-05-02T01:42:29;17.20;50.40
12329;DHT22;6230;52.390;10.256;2023-05-02T01:44:55;17.10;50.40
12329;DHT22;6230;52.390;10.256;2023-05-02T01:47:23;17.10;50.60
12329;DHT22;6230;52.390;10.256;2023-05-02T01:49:49;17.10;50.60
12329;DHT22;6230;52.390;10.256;2023-05-02T01:52:16;17.00;50.50
12329;DHT22;6230;52.390;10.256;2023-05-02T01:54:44;17.00;50.60
12329;DHT22;6230;52.390;10.256;2023-05-02T01:57:11;17.00;50.70
12329;DHT22;6230;52.390;10.256;2023-05-02T01:59:39;17.00;50.70
12329;DHT22;6230;52.390;10.256;2023-05-02T02:02:06;16.90;50.80
12329;DHT22;6230;52.390;10.256;2023-05-02T02:04:34;16.90;50.90
12329;DHT22;6230;52.390;10.256;2023-05-02T02:07:08;16.90;50.90
12329;DHT22;6230;52.390;10.256;2023-05-02T02:09:35;16.90;51.00
12329;DHT22;6230;52.390;10.256;2023-05-02T02:12:22;16.90;51.10
12329;DHT22;6230;52.390;10.256;2023-05-02T02:17:39;16.90;51.20
12329;DHT22;6230;52.390;10.256;2023-05-02T02:20:09;16.80;51.00
12329;DHT22;6230;52.390;10.256;2023-05-02T02:22:40;16.80;51.30
12329;DHT22;6230;52.390;10.256;2023-05-02T02:25:09;16.80;51.40
12329;DHT22;6230;52.390;10.256;2023-05-02T02:27:39;16.80;51.40
12329;DHT22;6230;52.390;10.256;2023-05-02T02:30:07;16.70;51.50
12329;DHT22;6230;52.390;10.256;2023-05-02T02:32:33;16.70;51.60
12329;DHT22;6230;52.390;10.256;2023-05-02T02:34:59;16.70;51.70
12329;DHT22;6230;52.390;10.256;2023-05-02T02:37:54;16.70;51.80
12329;DHT22;6230;52.390;10.256;2023-05-02T02:45:33;16.60;52.10
12329;DHT22;6230;52.390;10.256;2023-05-02T02:51:08;16.60;52.50
12329;DHT22;6230;52.390;10.256;2023-05-02T02:53:59;16.60;52.60
12329;DHT22;6230;52.390;10.256;2023-05-02T02:56:29;16.50;52.80
12329;DHT22;6230;52.390;10.256;2023-05-02T03:01:52;16.50;53.00
12329;DHT22;6230;52.390;10.256;2023-05-02T03:04:20;16.50;53.00
12329;DHT22;6230;52.390;10.256;2023-05-02T03:06:47;16.40;53.10
12329;DHT22;6230;52.390;10.256;2023-05-02T03:09:16;16.40;53.40
12329;DHT22;6230;52.390;10.256;2023-05-02T03:11:44;16.30;53.60
12329;DHT22;6230;52.390;10.256;2023-05-02T03:14:12;16.30;53.90
12329;DHT22;6230;52.390;10.256;2023-05-02T03:16:39;16.20;54.20
12329;DHT22;6230;52.390;10.256;2023-05-02T03:19:05;16.20;54.60
12329;DHT22;6230;52.390;10.256;2023-05-02T03:21:31;16.10;54.70
12329;DHT22;6230;52.390;10.256;2023-05-02T03:23:58;16.10;54.90
12329;DHT22;6230;52.390;10.256;2023-05-02T03:26:24;16.10;55.80
12329;DHT22;6230;52.390;10.256;2023-05-02T03:28:50;16.10;55.30
12329;DHT22;6230;52.390;10.256;2023-05-02T03:31:16;16.00;55.40
12329;DHT22;6230;52.390;10.256;2023-05-02T03:33:41;16.00;55.50
12329;DHT22;6230;52.390;10.256;2023-05-02T03:36:07;16.00;55.70
12329;DHT22;6230;52.390;10.256;2023-05-02T03:38:33;16.00;55.70
12329;DHT22;6230;52.390;10.256;2023-05-02T03:40:58;16.10;55.90
12329;DHT22;6230;52.390;10.256;2023-05-02T03:43:24;16.10;56.00
12329;DHT22;6230;52.390;10.256;2023-05-02T03:45:50;16.10;56.00
12329;DHT22;6230;52.390;10.256;2023-05-02T03:48:15;16.10;56.00
12329;DHT22;6230;52.390;10.256;2023-05-02T03:50:41;16.10;56.10
12329;DHT22;6230;52.390;10.256;2023-05-02T03:53:08;16.10;56.20
12329;DHT22;6230;52.390;10.256;2023-05-02T03:55:41;16.10;56.30
12329;DHT22;6230;52.390;10.256;2023-05-02T03:58:07;16.10;56.40
12329;DHT22;6230;52.390;10.256;2023-05-02T04:00:32;16.10;56.50
12329;DHT22;6230;52.390;10.256;2023-05-02T04:03:00;16.00;56.60
12329;DHT22;6230;52.390;10.256;2023-05-02T04:05:26;16.00;56.70
12329;DHT22;6230;52.390;10.256;2023-05-02T04:07:51;16.00;56.80
12329;DHT22;6230;52.390;10.256;2023-05-02T04:10:17;16.00;56.80
12329;DHT22;6230;52.390;10.256;2023-05-02T04:12:43;16.00;57.00
12329;DHT22;6230;52.390;10.256;2023-05-02T04:15:09;16.00;57.10
12329;DHT22;6230;52.390;10.256;2023-05-02T04:17:35;16.00;57.20
12329;DHT22;6230;52.390;10.256;2023-05-02T04:20:01;16.00;57.30
12329;DHT22;6230;52.390;10.256;2023-05-02T04:22:27;16.00;57.40
12329;DHT22;6230;52.390;10.256;2023-05-02T04:24:53;16.00;57.50
12329;DHT22;6230;52.390;10.256;2023-05-02T04:27:18;16.00;57.50
12329;DHT22;6230;52.390;10.256;2023-05-02T04:29:47;16.00;57.60
12329;DHT22;6230;52.390;10.256;2023-05-02T04:32:13;16.00;57.70
12329;DHT22;6230;52.390;10.256;2023-05-02T04:34:39;16.00;57.80
12329;DHT22;6230;52.390;10.256;2023-05-02T04:37:04;16.00;57.80
12329;DHT22;6230;52.390;10.256;2023-05-02T04:39:30;16.00;57.90
12329;DHT22;6230;52.390;10.256;2023-05-02T04:41:56;16.00;57.90
12329;DHT22;6230;52.390;10.256;2023-05-02T04:44:21;16.00;57.90
12329;DHT22;6230;52.390;10.256;2023-05-02T04:46:47;16.00;58.10
12329;DHT22;6230;52.390;10.256;2023-05-02T04:49:12;16.00;58.20
12329;DHT22;6230;52.390;10.256;2023-05-02T04:51:38;16.00;58.30
12329;DHT22;6230;52.390;10.256;2023-05-02T04:54:04;15.90;58.40
12329;DHT22;6230;52.390;10.256;2023-05-02T04:56:29;15.90;58.50
12329;DHT22;6230;52.390;10.256;2023-05-02T04:58:55;15.90;58.70
12329;DHT22;6230;52.390;10.256;2023-05-02T05:01:20;15.90;58.80
12329;DHT22;6230;52.390;10.256;2023-05-02T05:03:46;15.90;58.90
12329;DHT22;6230;52.390;10.256;2023-05-02T05:06:11;15.90;59.10
12329;DHT22;6230;52.390;10.256;2023-05-02T05:08:37;15.80;59.20
12329;DHT22;6230;52.390;10.256;2023-05-02T05:11:03;15.80;59.40
12329;DHT22;6230;52.390;10.256;2023-05-02T05:13:29;15.70;59.70
12329;DHT22;6230;52.390;10.256;2023-05-02T05:15:55;15.60;59.90
12329;DHT22;6230;52.390;10.256;2023-05-02T05:18:20;15.60;60.20
12329;DHT22;6230;52.390;10.256;2023-05-02T05:20:46;15.60;60.50
12329;DHT22;6230;52.390;10.256;2023-05-02T05:23:11;15.60;60.80
12329;DHT22;6230;52.390;10.256;2023-05-02T05:25:37;15.60;61.10
12329;DHT22;6230;52.390;10.256;2023-05-02T05:28:04;15.60;61.30
12329;DHT22;6230;52.390;10.256;2023-05-02T05:30:30;15.50;61.60
12329;DHT22;6230;52.390;10.256;2023-05-02T05:32:56;15.50;61.80
12329;DHT22;6230;52.390;10.256;2023-05-02T05:35:23;15.50;62.00
12329;DHT22;6230;52.390;10.256;2023-05-02T05:37:49;15.50;62.20
12329;DHT22;6230;52.390;10.256;2023-05-02T05:40:14;15.50;62.40
12329;DHT22;6230;52.390;10.256;2023-05-02T05:42:41;15.50;63.10
12329;DHT22;6230;52.390;10.256;2023-05-02T05:45:07;15.50;62.60
12329;DHT22;6230;52.390;10.256;2023-05-02T05:47:33;15.40;62.70
12329;DHT22;6230;52.390;10.256;2023-05-02T05:49:59;15.40;62.80
12329;DHT22;6230;52.390;10.256;2023-05-02T05:52:24;15.30;62.80
12329;DHT22;6230;52.390;10.256;2023-05-02T05:54:53;15.30;63.00
12329;DHT22;6230;52.390;10.256;2023-05-02T05:57:20;15.20;63.00
12329;DHT22;6230;52.390;10.256;2023-05-02T05:59:45;15.10;63.00
12329;DHT22;6230;52.390;10.256;2023-05-02T06:02:11;14.90;63.80
12329;DHT22;6230;52.390;10.256;2023-05-02T06:04:37;14.80;63.20
12329;DHT22;6230;52.390;10.256;2023-05-02T06:07:02;14.70;63.30
12329;DHT22;6230;52.390;10.256;2023-05-02T06:09:28;14.50;63.30
12329;DHT22;6230;52.390;10.256;2023-05-02T06:11:53;14.40;63.30
12329;DHT22;6230;52.390;10.256;2023-05-02T06:14:19;14.40;63.40
12329;DHT22;6230;52.390;10.256;2023-05-02T06:16:45;14.30;63.30
12329;DHT22;6230;52.390;10.256;2023-05-02T06:19:10;14.30;63.20
12329;DHT22;6230;52.390;10.256;2023-05-02T06:21:36;14.20;63.10
12329;DHT22;6230;52.390;10.256;2023-05-02T06:24:02;14.20;63.10
12329;DHT22;6230;52.390;10.256;2023-05-02T06:26:27;14.10;63.00
12329;DHT22;6230;52.390;10.256;2023-05-02T06:28:54;14.10;63.00
12329;DHT22;6230;52.390;10.256;2023-05-02T06:31:19;14.10;62.80
12329;DHT22;6230;52.390;10.256;2023-05-02T06:33:45;14.10;62.80
12329;DHT22;6230;52.390;10.256;2023-05-02T06:36:10;14.10;62.70
12329;DHT22;6230;52.390;10.256;2023-05-02T06:38:36;14.20;62.70
12329;DHT22;6230;52.390;10.256;2023-05-02T06:41:01;14.20;62.60
12329;DHT22;6230;52.390;10.256;2023-05-02T06:43:27;14.20;63.40
12329;DHT22;6230;52.390;10.256;2023-05-02T06:45:53;14.20;62.60
12329;DHT22;6230;52.390;10.256;2023-05-02T06:48:19;14.30;62.60
12329;DHT22;6230;52.390;10.256;2023-05-02T06:50:46;14.30;62.60
12329;DHT22;6230;52.390;10.256;2023-05-02T06:53:11;14.30;62.50
12329;DHT22;6230;52.390;10.256;2023-05-02T06:55:37;14.30;62.40
12329;DHT22;6230;52.390;10.256;2023-05-02T06:58:02;14.30;62.40
12329;DHT22;6230;52.390;10.256;2023-05-02T07:00:28;14.20;62.40
12329;DHT22;6230;52.390;10.256;2023-05-02T07:02:54;14.30;62.50
12329;DHT22;6230;52.390;10.256;2023-05-02T07:05:19;14.20;62.40
12329;DHT22;6230;52.390;10.256;2023-05-02T07:07:45;14.20;62.30
12329;DHT22;6230;52.390;10.256;2023-05-02T07:10:10;14.20;62.30
12329;DHT22;6230;52.390;10.256;2023-05-02T07:12:37;14.10;62.10
12329;DHT22;6230;52.390;10.256;2023-05-02T07:15:04;14.10;62.00
12329;DHT22;6230;52.390;10.256;2023-05-02T07:17:30;14.10;61.90
12329;DHT22;6230;52.390;10.256;2023-05-02T07:19:56;14.10;61.80
12329;DHT22;6230;52.390;10.256;2023-05-02T07:22:22;14.10;61.60
12329;DHT22;6230;52.390;10.256;2023-05-02T07:24:47;14.20;61.60
12329;DHT22;6230;52.390;10.256;2023-05-02T07:27:13;14.10;61.40
12329;DHT22;6230;52.390;10.256;2023-05-02T07:29:39;14.10;61.30
12329;DHT22;6230;52.390;10.256;2023-05-02T07:32:06;14.10;61.20
12329;DHT22;6230;52.390;10.256;2023-05-02T07:34:32;14.10;61.10
12329;DHT22;6230;52.390;10.256;2023-05-02T07:36:58;14.20;61.10
12329;DHT22;6230;52.390;10.256;2023-05-02T07:39:24;14.20;60.90
12329;DHT22;6230;52.390;10.256;2023-05-02T07:41:51;14.30;60.80
12329;DHT22;6230;52.390;10.256;2023-05-02T07:44:17;14.30;60.60
12329;DHT22;6230;52.390;10.256;2023-05-02T07:46:42;14.30;60.40
12329;DHT22;6230;52.390;10.256;2023-05-02T07:49:08;14.40;60.30
12329;DHT22;6230;52.390;10.256;2023-05-02T07:51:33;14.40;60.20
12329;DHT22;6230;52.390;10.256;2023-05-02T07:53:59;14.40;60.00
12329;DHT22;6230;52.390;10.256;2023-05-02T07:56:25;14.50;59.90
12329;DHT22;6230;52.390;10.256;2023-05-02T07:58:51;14.60;59.90
12329;DHT22;6230;52.390;10.256;2023-05-02T08:01:18;14.60;60.40
12329;DHT22;6230;52.390;10.256;2023-05-02T08:03:44;14.70;59.50
12329;DHT22;6230;52.390;10.256;2023-05-02T08:06:10;14.70;59.30
12329;DHT22;6230;52.390;10.256;2023-05-02T08:08:36;14.70;59.10
12329;DHT22;6230;52.390;10.256;2023-05-02T08:11:01;14.70;59.00
12329;DHT22;6230;52.390;10.256;2023-05-02T08:13:27;14.70;59.00
12329;DHT22;6230;52.390;10.256;2023-05-02T08:15:53;14.70;58.90
12329;DHT22;6230;52.390;10.256;2023-05-02T08:18:26;14.70;58.90
12329;DHT22;6230;52.390;10.256;2023-05-02T08:20:54;14.70;58.80
12329;DHT22;6230;52.390;10.256;2023-05-02T08:23:20;14.70;58.80
12329;DHT22;6230;52.390;10.256;2023-05-02T08:25:46;14.80;59.20
12329;DHT22;6230;52.390;10.256;2023-05-02T08:28:12;14.80;58.40
12329;DHT22;6230;52.390;10.256;2023-05-02T08:30:37;14.80;58.40
12329;DHT22;6230;52.390;10.256;2023-05-02T08:33:03;14.90;58.20
12329;DHT22;6230;52.390;10.256;2023-05-02T08:35:28;14.90;58.20
12329;DHT22;6230;52.390;10.256;2023-05-02T08:37:55;14.90;58.00
12329;DHT22;6230;52.390;10.256;2023-05-02T08:40:21;14.90;57.80
12329;DHT22;6230;52.390;10.256;2023-05-02T08:42:47;14.90;57.80
12329;DHT22;6230;52.390;10.256;2023-05-02T08:45:13;14.90;57.60
12329;DHT22;6230;52.390;10.256;2023-05-02T08:47:40;14.90;57.50
12329;DHT22;6230;52.390;10.256;2023-05-02T08:50:08;14.90;57.40
12329;DHT22;6230;52.390;10.256;2023-05-02T08:52:35;14.90;57.10
12329;DHT22;6230;52.390;10.256;2023-05-02T08:55:03;14.90;56.80
12329;DHT22;6230;52.390;10.256;2023-05-02T08:57:29;14.90;56.80
12329;DHT22;6230;52.390;10.256;2023-05-02T08:59:55;14.80;56.70
12329;DHT22;6230;52.390;10.256;2023-05-02T09:05:06;14.80;56.60
12329;DHT22;6230;52.390;10.256;2023-05-02T09:07:46;14.80;56.50
12329;DHT22;6230;52.390;10.256;2023-05-02T09:10:13;14.80;56.40
12329;DHT22;6230;52.390;10.256;2023-05-02T09:12:38;14.80;56.30
12329;DHT22;6230;52.390;10.256;2023-05-02T09:15:12;14.90;55.70
12329;DHT22;6230;52.390;10.256;2023-05-02T09:17:40;15.00;55.80
12329;DHT22;6230;52.390;10.256;2023-05-02T09:20:06;15.00;55.50
12329;DHT22;6230;52.390;10.256;2023-05-02T09:22:32;15.00;55.40
12329;DHT22;6230;52.390;10.256;2023-05-02T09:24:59;15.00;55.30
12329;DHT22;6230;52.390;10.256;2023-05-02T09:27:26;15.00;55.20
12329;DHT22;6230;52.390;10.256;2023-05-02T09:29:51;15.00;55.20
12329;DHT22;6230;52.390;10.256;2023-05-02T09:32:44;15.10;55.10
12329;DHT22;6230;52.390;10.256;2023-05-02T09:35:10;15.10;54.90
12329;DHT22;6230;52.390;10.256;2023-05-02T09:37:36;15.10;54.80
12329;DHT22;6230;52.390;10.256;2023-05-02T09:40:06;15.10;55.30
12329;DHT22;6230;52.390;10.256;2023-05-02T09:42:31;15.00;54.50
12329;DHT22;6230;52.390;10.256;2023-05-02T09:44:57;15.00;54.50
12329;DHT22;6230;52.390;10.256;2023-05-02T09:47:26;15.10;54.40
12329;DHT22;6230;52.390;10.256;2023-05-02T09:49:51;15.10;54.20
12329;DHT22;6230;52.390;10.256;2023-05-02T09:52:19;15.10;54.10
12329;DHT22;6230;52.390;10.256;2023-05-02T09:54:46;15.10;54.00
12329;DHT22;6230;52.390;10.256;2023-05-02T09:57:14;15.20;54.00
12329;DHT22;6230;52.390;10.256;2023-05-02T09:59:41;15.20;54.00
12329;DHT22;6230;52.390;10.256;2023-05-02T10:02:17;15.30;53.90
12329;DHT22;6230;52.390;10.256;2023-05-02T10:04:43;15.40;53.80
12329;DHT22;6230;52.390;10.256;2023-05-02T10:07:10;15.40;53.60
12329;DHT22;6230;52.390;10.256;2023-05-02T10:09:41;15.50;53.20
12329;DHT22;6230;52.390;10.256;2023-05-02T10:12:07;15.60;53.20
12329;DHT22;6230;52.390;10.256;2023-05-02T10:14:40;15.70;52.90
12329;DHT22;6230;52.390;10.256;2023-05-02T10:17:21;15.80;52.50
12329;DHT22;6230;52.390;10.256;2023-05-02T10:20:05;15.90;52.30
12329;DHT22;6230;52.390;10.256;2023-05-02T10:22:33;15.90;52.20
12329;DHT22;6230;52.390;10.256;2023-05-02T10:24:58;16.00;52.10
12329;DHT22;6230;52.390;10.256;2023-05-02T10:27:25;16.00;51.80
12329;DHT22;6230;52.390;10.256;2023-05-02T10:29:51;16.00;51.90
12329;DHT22;6230;52.390;10.256;2023-05-02T10:32:17;16.20;52.00
12329;DHT22;6230;52.390;10.256;2023-05-02T10:34:43;16.20;51.60
12329;DHT22;6230;52.390;10.256;2023-05-02T10:37:08;16.20;51.60
12329;DHT22;6230;52.390;10.256;2023-05-02T10:39:34;16.20;51.60
12329;DHT22;6230;52.390;10.256;2023-05-02T10:42:01;16.20;51.50
12329;DHT22;6230;52.390;10.256;2023-05-02T10:44:46;16.20;51.40
12329;DHT22;6230;52.390;10.256;2023-05-02T10:47:19;16.20;51.30
12329;DHT22;6230;52.390;10.256;2023-05-02T10:49:52;16.20;51.00
12329;DHT22;6230;52.390;10.256;2023-05-02T10:52:37;16.20;50.90
12329;DHT22;6230;52.390;10.256;2023-05-02T10:55:22;16.20;50.70
12329;DHT22;6230;52.390;10.256;2023-05-02T11:00:30;16.30;50.70
12329;DHT22;6230;52.390;10.256;2023-05-02T11:02:56;16.40;50.70
12329;DHT22;6230;52.390;10.256;2023-05-02T11:05:23;16.30;50.50
12329;DHT22;6230;52.390;10.256;2023-05-02T11:07:49;16.30;50.40
12329;DHT22;6230;52.390;10.256;2023-05-02T11:12:56;16.40;50.60
12329;DHT22;6230;52.390;10.256;2023-05-02T11:18:03;16.70;50.40
12329;DHT22;6230;52.390;10.256;2023-05-02T11:20:32;16.80;50.10
12329;DHT22;6230;52.390;10.256;2023-05-02T11:22:59;16.90;50.10
12329;DHT22;6230;52.390;10.256;2023-05-02T11:25:50;16.90;49.80
12329;DHT22;6230;52.390;10.256;2023-05-02T11:31:01;16.90;49.40
12329;DHT22;6230;52.390;10.256;2023-05-02T11:33:27;16.80;49.40
12329;DHT22;6230;52.390;10.256;2023-05-02T11:35:53;16.80;49.30
12329;DHT22;6230;52.390;10.256;2023-05-02T11:38:21;16.70;49.20
12329;DHT22;6230;52.390;10.256;2023-05-02T11:40:55;16.80;49.10
12329;DHT22;6230;52.390;10.256;2023-05-02T11:43:21;16.90;48.70
12329;DHT22;6230;52.390;10.256;2023-05-02T11:45:47;16.90;48.70
12329;DHT22;6230;52.390;10.256;2023-05-02T11:48:16;17.00;48.60
12329;DHT22;6230;52.390;10.256;2023-05-02T11:50:46;17.10;48.00
12329;DHT22;6230;52.390;10.256;2023-05-02T11:53:13;17.30;47.90
12329;DHT22;6230;52.390;10.256;2023-05-02T11:55:47;17.40;47.60
12329;DHT22;6230;52.390;10.256;2023-05-02T11:58:18;17.50;46.80
12329;DHT22;6230;52.390;10.256;2023-05-02T12:00:44;17.60;46.60
12329;DHT22;6230;52.390;10.256;2023-05-02T12:03:28;17.70;46.50
12329;DHT22;6230;52.390;10.256;2023-05-02T12:05:55;17.90;46.40
12329;DHT22;6230;52.390;10.256;2023-05-02T12:08:23;18.10;46.10
12329;DHT22;6230;52.390;10.256;2023-05-02T12:10:49;18.30;45.80
12329;DHT22;6230;52.390;10.256;2023-05-02T12:13:16;18.40;45.80
12329;DHT22;6230;52.390;10.256;2023-05-02T12:15:42;18.40;45.70
12329;DHT22;6230;52.390;10.256;2023-05-02T12:18:08;18.20;45.10
12329;DHT22;6230;52.390;10.256;2023-05-02T12:20:36;18.10;45.10
12329;DHT22;6230;52.390;10.256;2023-05-02T12:23:04;18.00;45.20
12329;DHT22;6230;52.390;10.256;2023-05-02T12:25:31;18.20;45.90
12329;DHT22;6230;52.390;10.256;2023-05-02T12:27:58;18.30;45.00
12329;DHT22;6230;52.390;10.256;2023-05-02T12:30:28;18.50;44.70
12329;DHT22;6230;52.390;10.256;2023-05-02T12:32:58;18.80;44.50
12329;DHT22;6230;52.390;10.256;2023-05-02T12:35:26;19.00;43.80
12329;DHT22;6230;52.390;10.256;2023-05-02T12:37:52;19.00;43.30
12329;DHT22;6230;52.390;10.256;2023-05-02T12:40:19;19.00;43.20
12329;DHT22;6230;52.390;10.256;2023-05-02T12:43:03;19.00;43.10
12329;DHT22;6230;52.390;10.256;2023-05-02T12:45:31;18.90;42.80
12329;DHT22;6230;52.390;10.256;2023-05-02T12:48:00;18.80;43.10
12329;DHT22;6230;52.390;10.256;2023-05-02T12:50:39;18.80;43.40
12329;DHT22;6230;52.390;10.256;2023-05-02T12:53:04;18.70;42.90
12329;DHT22;6230;52.390;10.256;2023-05-02T12:55:30;18.60;42.80
12329;DHT22;6230;52.390;10.256;2023-05-02T12:58:00;18.60;43.00
12329;DHT22;6230;52.390;10.256;2023-05-02T13:00:25;18.60;43.20
12329;DHT22;6230;52.390;10.256;2023-05-02T13:02:51;18.70;43.20
12329;DHT22;6230;52.390;10.256;2023-05-02T13:05:17;18.80;43.00
12329;DHT22;6230;52.390;10.256;2023-05-02T13:07:43;19.00;42.60
12329;DHT22;6230;52.390;10.256;2023-05-02T13:10:09;19.20;42.10
12329;DHT22;6230;52.390;10.256;2023-05-02T13:12:35;19.30;41.70
12329;DHT22;6230;52.390;10.256;2023-05-02T13:15:03;19.40;41.50
12329;DHT22;6230;52.390;10.256;2023-05-02T13:17:28;19.50;41.30
12329;DHT22;6230;52.390;10.256;2023-05-02T13:19:54;19.50;41.30
12329;DHT22;6230;52.390;10.256;2023-05-02T13:22:20;19.60;40.90
12329;DHT22;6230;52.390;10.256;2023-05-02T13:24:46;19.60;40.50
12329;DHT22;6230;52.390;10.256;2023-05-02T13:27:11;19.60;40.60
12329;DHT22;6230;52.390;10.256;2023-05-02T13:29:37;19.70;40.90
12329;DHT22;6230;52.390;10.256;2023-05-02T13:32:02;19.80;40.70
12329;DHT22;6230;52.390;10.256;2023-05-02T13:34:28;19.80;40.40
12329;DHT22;6230;52.390;10.256;2023-05-02T13:36:53;19.90;41.10
12329;DHT22;6230;52.390;10.256;2023-05-02T13:39:19;20.00;40.40
12329;DHT22;6230;52.390;10.256;2023-05-02T13:41:44;20.00;40.10
12329;DHT22;6230;52.390;10.256;2023-05-02T13:44:10;19.90;39.90
12329;DHT22;6230;52.390;10.256;2023-05-02T13:46:35;19.80;40.00
12329;DHT22;6230;52.390;10.256;2023-05-02T13:49:05;19.80;40.10
12329;DHT22;6230;52.390;10.256;2023-05-02T13:51:31;19.80;39.90
12329;DHT22;6230;52.390;10.256;2023-05-02T13:53:57;19.90;40.00
12329;DHT22;6230;52.390;10.256;2023-05-02T13:56:23;19.90;39.90
12329;DHT22;6230;52.390;10.256;2023-05-02T13:58:48;19.80;40.00
12329;DHT22;6230;52.390;10.256;2023-05-02T14:01:14;19.70;40.10
12329;DHT22;6230;52.390;10.256;2023-05-02T14:03:39;19.50;40.10
12329;DHT22;6230;52.390;10.256;2023-05-02T14:06:05;19.30;40.30
12329;DHT22;6230;52.390;10.256;2023-05-02T14:08:31;19.20;40.70
12329;DHT22;6230;52.390;10.256;2023-05-02T14:10:56;19.10;40.60
12329;DHT22;6230;52.390;10.256;2023-05-02T14:13:22;19.00;40.50
12329;DHT22;6230;52.390;10.256;2023-05-02T14:15:49;18.90;40.50
12329;DHT22;6230;52.390;10.256;2023-05-02T14:18:14;18.90;40.50
12329;DHT22;6230;52.390;10.256;2023-05-02T14:20:41;18.80;40.30
12329;DHT22;6230;52.390;10.256;2023-05-02T14:23:07;18.80;40.40
12329;DHT22;6230;52.390;10.256;2023-05-02T14:25:32;18.70;40.50
12329;DHT22;6230;52.390;10.256;2023-05-02T14:27:58;18.60;40.60
12329;DHT22;6230;52.390;10.256;2023-05-02T14:30:24;18.50;40.70
12329;DHT22;6230;52.390;10.256;2023-05-02T14:32:50;18.40;40.80
12329;DHT22;6230;52.390;10.256;2023-05-02T14:35:16;18.30;41.00
12329;DHT22;6230;52.390;10.256;2023-05-02T14:37:42;18.10;41.10
12329;DHT22;6230;52.390;10.256;2023-05-02T14:40:09;18.00;41.10
12329;DHT22;6230;52.390;10.256;2023-05-02T14:42:35;17.90;40.80
12329;DHT22;6230;52.390;10.256;2023-05-02T14:45:01;17.80;41.00
12329;DHT22;6230;52.390;10.256;2023-05-02T14:47:27;17.80;41.20
12329;DHT22;6230;52.390;10.256;2023-05-02T14:49:55;17.80;41.10
12329;DHT22;6230;52.390;10.256;2023-05-02T14:52:21;17.90;41.30
12329;DHT22;6230;52.390;10.256;2023-05-02T14:54:47;17.90;41.00
12329;DHT22;6230;52.390;10.256;2023-05-02T14:57:12;17.80;40.80
12329;DHT22;6230;52.390;10.256;2023-05-02T14:59:38;17.70;41.00
12329;DHT22;6230;52.390;10.256;2023-05-02T15:02:04;17.60;41.20
12329;DHT22;6230;52.390;10.256;2023-05-02T15:04:30;17.50;41.40
12329;DHT22;6230;52.390;10.256;2023-05-02T15:06:56;17.30;41.70
12329;DHT22;6230;52.390;10.256;2023-05-02T15:09:23;17.20;41.80
12329;DHT22;6230;52.390;10.256;2023-05-02T15:11:51;17.20;41.90
12329;DHT22;6230;52.390;10.256;2023-05-02T15:14:17;17.20;42.00
12329;DHT22;6230;52.390;10.256;2023-05-02T15:16:42;17.10;41.80
12329;DHT22;6230;52.390;10.256;2023-05-02T15:19:08;17.10;41.90
12329;DHT22;6230;52.390;10.256;2023-05-02T15:21:33;17.10;42.10
12329;DHT22;6230;52.390;10.256;2023-05-02T15:24:00;17.10;42.20
12329;DHT22;6230;52.390;10.256;2023-05-02T15:26:25;17.10;42.30
12329;DHT22;6230;52.390;10.256;2023-05-02T15:28:51;17.00;42.50
12329;DHT22;6230;52.390;10.256;2023-05-02T15:31:17;17.00;42.40
12329;DHT22;6230;52.390;10.256;2023-05-02T15:33:43;16.90;42.50
12329;DHT22;6230;52.390;10.256;2023-05-02T15:36:08;16.90;42.70
12329;DHT22;6230;52.390;10.256;2023-05-02T15:38:34;16.80;42.70
12329;DHT22;6230;52.390;10.256;2023-05-02T15:41:04;16.80;42.60
12329;DHT22;6230;52.390;10.256;2023-05-02T15:43:29;16.80;42.60
12329;DHT22;6230;52.390;10.256;2023-05-02T15:45:57;16.80;42.70
12329;DHT22;6230;52.390;10.256;2023-05-02T15:48:26;16.70;42.90
12329;DHT22;6230;52.390;10.256;2023-05-02T15:50:52;16.60;43.00
12329;DHT22;6230;52.390;10.256;2023-05-02T15:53:17;16.60;43.00
12329;DHT22;6230;52.390;10.256;2023-05-02T15:55:43;16.50;43.00
12329;DHT22;6230;52.390;10.256;2023-05-02T15:58:11;16.50;43.20
12329;DHT22;6230;52.390;10.256;2023-05-02T16:00:36;16.50;43.30
12329;DHT22;6230;52.390;10.256;2023-05-02T16:03:03;16.40;43.40
12329;DHT22;6230;52.390;10.256;2023-05-02T16:05:28;16.40;43.50
12329;DHT22;6230;52.390;10.256;2023-05-02T16:07:54;16.40;43.60
12329;DHT22;6230;52.390;10.256;2023-05-02T16:10:20;16.40;43.70